Bowen, Australia
Current Conditions -  °F | °C
As of 10:00 AM on Tuesday 25 Nov 2014 (Local Time) from YBPN Reporting Station
Scattered Clouds Scattered Clouds  
Wind Chill: 86°   Ceiling: Unl
Heat Index: 89°   Visibility: 6mi
Dew Point: 68°   Wind: 14mph
Humidity: 55%   Direction: 110°ESE
Pressure: 29.91"   Gusts: NA
Location:  20.01°S, 148.25°E
Report Text: YBPN 250000Z AUTO 11012KT 9999 // SCT031 SCT038 30/20 Q1013
Loading
Personal Weather Stations






























Interactive Weather Map New forecast layout! Learn more

10-Day Weather Forecast

Advertisements
Track Severe Weather on mobile